createdAt,value
2023-03-03T00:00:36.300Z,2.90
2023-03-03T00:03:18.182Z,2.80
2023-03-03T00:10:24.073Z,2.80
2023-03-03T00:13:02.306Z,2.50
2023-03-03T00:15:43.855Z,2.70
2023-03-03T00:18:40.622Z,2.50
2023-03-03T00:21:32.465Z,2.20
2023-03-03T00:24:25.830Z,2.30
2023-03-03T00:32:47.782Z,2.40
2023-03-03T00:35:36.408Z,2.70
2023-03-03T00:38:21.811Z,2.70
2023-03-03T00:41:05.665Z,2.60
2023-03-03T00:43:43.666Z,2.40
2023-03-03T00:46:23.887Z,2.60
2023-03-03T00:48:57.319Z,2.50
2023-03-03T00:56:42.322Z,2.50
2023-03-03T00:59:13.886Z,2.10
2023-03-03T01:01:53.716Z,2.30
2023-03-03T01:04:30.500Z,2.30
2023-03-03T01:07:08.612Z,2.10
2023-03-03T01:09:59.509Z,2.20
2023-03-03T01:12:31.284Z,2.30
2023-03-03T01:15:08.653Z,1.90
2023-03-03T01:22:53.239Z,1.60
2023-03-03T01:25:29.103Z,1.50
2023-03-03T01:28:05.697Z,1.80
2023-03-03T01:30:38.874Z,2.20
2023-03-03T01:33:12.292Z,2.40
2023-03-03T01:35:52.701Z,2.20
2023-03-03T01:38:38.234Z,2.00
2023-03-03T01:44:09.177Z,2.00
2023-03-03T01:47:02.064Z,2.00
2023-03-03T01:49:40.549Z,1.60
2023-03-03T01:52:33.869Z,1.00
2023-03-03T01:55:36.791Z,0.90
2023-03-03T01:58:20.651Z,0.90
2023-03-03T02:00:56.182Z,0.90
2023-03-03T02:08:38.533Z,1.10
2023-03-03T02:11:16.148Z,1.10
2023-03-03T02:13:48.389Z,1.30
2023-03-03T02:16:25.626Z,0.90
2023-03-03T02:18:57.568Z,0.70
2023-03-03T02:21:31.547Z,0.70
2023-03-03T02:27:23.722Z,0.60
2023-03-03T02:29:57.509Z,0.80
2023-03-03T02:32:29.075Z,0.70
2023-03-03T02:35:00.197Z,0.70
2023-03-03T02:37:32.462Z,0.50
2023-03-03T02:40:03.510Z,0.60
2023-03-03T02:45:49.154Z,0.10
2023-03-03T02:48:24.258Z,0.10
2023-03-03T02:50:56.621Z,0.30
2023-03-03T02:53:28.825Z,0.00
2023-03-03T02:56:10.162Z,0.00
2023-03-03T02:58:40.502Z,-0.10
2023-03-03T03:01:14.372Z,-0.30
2023-03-03T03:08:01.134Z,-0.20
2023-03-03T03:10:31.367Z,0.50
2023-03-03T03:13:03.022Z,0.30
2023-03-03T03:15:35.499Z,-0.10
2023-03-03T03:18:14.921Z,-0.50
2023-03-03T03:20:48.389Z,-0.60
2023-03-03T03:23:24.177Z,-0.70
2023-03-03T03:32:06.241Z,-0.70
2023-03-03T03:34:46.267Z,-0.60
2023-03-03T03:37:24.286Z,-0.30
2023-03-03T03:40:02.089Z,-0.40
2023-03-03T03:42:37.004Z,-0.30
2023-03-03T03:45:13.184Z,-0.50
2023-03-03T03:47:44.012Z,-0.40
2023-03-03T03:50:39.731Z,-0.40
2023-03-03T03:53:14.067Z,-0.30
2023-03-03T03:56:25.535Z,-0.20
2023-03-03T04:04:38.312Z,-0.40
2023-03-03T04:07:20.630Z,-0.30
2023-03-03T04:10:11.627Z,-0.50
2023-03-03T04:12:48.319Z,-0.40
2023-03-03T04:15:37.069Z,-0.50
2023-03-03T04:18:35.935Z,-0.60
2023-03-03T04:21:22.887Z,-0.60
2023-03-03T04:32:04.227Z,-0.20
2023-03-03T04:34:58.762Z,-0.70
2023-03-03T04:37:57.658Z,-0.80
2023-03-03T04:40:36.888Z,-1.00
2023-03-03T04:43:25.496Z,-1.10
2023-03-03T04:46:07.011Z,-1.20
2023-03-03T04:49:23.683Z,-1.40
2023-03-03T04:52:52.969Z,-1.40
2023-03-03T04:55:44.852Z,-1.40
2023-03-03T04:58:41.958Z,-1.40
2023-03-03T05:01:23.966Z,-1.40
